Council Grove, KS (66846)

3:14 PM CDT on July 27, 2016 (GMT -0500)
Timmerman School Area | | Change Station

Elev 1214 ft 38.43 °N, 96.22 °W | Updated 12 seconds ago

Clear
Clear
89.8 °F
Feels Like 86 °F
N
0.9
Wind Variable Wind from ESE
Gusts 2.5 mph

Today
High -- | Low -- °F
--% Chance of Precip.
Yesterday
High -- | Low -- °F
Precip. -- in
Pressure 29.94 in
Visibility 10.0 miles
Clouds Clear
Heat Index 86 °F
Dew Point 26 °F
Humidity 10%
Rainfall 0.00 in
Snow Depth Not available.
6:23 AM 8:40 PM
Last Quarter, 40% visible
METAR KEMP 271953Z AUTO 00000KT 10SM CLR 32/21 A2997 RMK AO2 SLP136 T03220206
Pressure 29.94 in
Visibility 10.0 miles
Clouds Clear
Heat Index 86 °F
Dew Point 26 °F
Humidity 10%
Rainfall 0.00 in
Snow Depth Not available.
6:23 AM 8:40 PM
Last Quarter, 40% visible
METAR KEMP 271953Z AUTO 00000KT 10SM CLR 32/21 A2997 RMK AO2 SLP136 T03220206

10-Day Weather Forecast

Almanac

Astronomy

Jul. 27, 2016 Rise Set
Actual Time
Civil Twilight
Nautical Twilight
Astronomical Twilight
Moon
Length of Visible Light
Length of Day
Tomorrow will be .
, % of the Moon is Illuminated

Today's Extremes

State Highs State Lows

Community

WunderPhotos

Upload Photos

1,927,931 photos uploaded!

WunderBlog® & News

Nearby

Air Quality

  Air Quality AQ Index Pollutant
Not available.

Snow Depth

Station Depth Elevation

Earthquake Activity

City Distance Mag. Time & Date
Minimum magnitude displayed is 2.5.

Coastal Water Temperatures

Place Temperature

Stations

Nearby Weather Stations

Station Location Temp. Windchill Dew Point Humidity Wind Precip. Elev Updated Type
                   

Watches & Warnings

There are currently no watches in effect.